Time;durP1;ratioP1;P1;durP2;ratioP2;P2;SDS_P1;SDS_P2;PMS_P1;PMS_P2;Temp;Humidity;BMP_temperature;BMP_pressure;BME280_temperature;BME280_humidity;BME280_pressure;Samples;Min_cycle;Max_cycle;Signal;HPM_P1;HPM_P2
2022/08/14 00:01:58;;;;;;;;;;;;;;;20.18;100.00;96061.56;5084188;28;20080;-47
2022/08/14 00:04:29;;;;;;;11.82;8.00;;;;;;;20.06;100.00;96050.72;5084953;28;19990;-40
2022/08/14 00:07:03;;;;;;;11.55;7.43;;;;;;;19.30;100.00;96051.38;5081749;28;20084;-41
2022/08/14 00:09:34;;;;;;;10.18;6.88;;;;;;;19.11;100.00;96039.72;5082544;28;20881;-38
2022/08/14 00:12:22;;;;;;;14.30;8.15;;;;;;;19.26;100.00;96034.13;5082506;28;20103;-51
2022/08/14 00:15:05;;;;;;;10.85;8.00;;;;;;;19.40;100.00;96035.72;5080454;28;20442;-40
2022/08/14 00:17:34;;;;;;;8.38;6.93;;;;;;;19.80;100.00;96033.75;5082173;28;20475;-40
2022/08/14 00:20:16;;;;;;;8.38;6.78;;;;;;;19.79;100.00;96025.97;5085667;28;20086;-43
2022/08/14 00:22:58;;;;;;;14.13;7.32;;;;;;;19.76;100.00;96029.06;5082395;28;20063;-44
2022/08/14 00:25:40;;;;;;;11.48;8.32;;;;;;;19.64;100.00;96021.66;5080847;28;20068;-44
2022/08/14 00:28:11;;;;;;;18.65;10.75;;;;;;;19.66;100.00;96016.94;5082752;28;20079;-41
2022/08/14 00:30:47;;;;;;;18.38;10.13;;;;;;;19.36;100.00;96023.81;5080540;28;20079;-40
2022/08/14 00:33:16;;;;;;;18.77;11.30;;;;;;;19.27;100.00;96019.72;5083820;28;20072;-44
2022/08/14 00:35:45;;;;;;;19.02;12.23;;;;;;;19.26;100.00;96023.44;5083516;28;20091;-40
2022/08/14 00:38:33;;;;;;;17.80;11.60;;;;;;;19.24;100.00;96018.31;5084085;28;20086;-40
2022/08/14 00:41:03;;;;;;;16.58;10.45;;;;;;;19.34;100.00;96018.69;5081226;28;20076;-45
2022/08/14 00:43:32;;;;;;;16.60;10.98;;;;;;;19.42;100.00;96015.78;5082554;28;20078;-43
2022/08/14 00:46:08;;;;;;;14.50;10.02;;;;;;;19.74;100.00;96013.19;5081828;28;20072;-44
2022/08/14 00:48:56;;;;;;;18.08;11.05;;;;;;;19.09;100.00;96010.50;5081725;28;20634;-41
2022/08/14 00:51:25;;;;;;;15.20;10.20;;;;;;;19.36;100.00;96013.13;5081090;28;20576;-47
2022/08/14 00:54:06;;;;;;;16.27;9.43;;;;;;;19.62;100.00;96009.53;5082026;28;20068;-41
2022/08/14 00:56:50;;;;;;;12.15;8.82;;;;;;;19.48;100.00;96003.41;5082469;28;20094;-40
2022/08/14 00:59:24;;;;;;;9.85;8.20;;;;;;;19.44;100.00;96008.38;5081533;28;20084;-43
2022/08/14 01:01:56;;;;;;;;;;;;;;;19.70;100.00;96000.47;5077617;28;20481;-46
2022/08/14 01:04:27;;;;;;;10.65;7.93;;;;;;;19.65;100.00;96009.97;5082972;28;19924;-43
2022/08/14 01:07:18;;;;;;;10.63;7.10;;;;;;;18.81;100.00;96004.59;5080654;28;20075;-47
2022/08/14 01:09:47;;;;;;;10.18;7.43;;;;;;;19.06;100.00;95997.56;5081901;28;20076;-44
2022/08/14 01:12:17;;;;;;;9.38;7.45;;;;;;;19.23;100.00;96005.94;5081568;28;20086;-42
2022/08/14 01:14:56;;;;;;;9.77;7.03;;;;;;;19.42;100.00;95999.72;5080616;28;20076;-43
2022/08/14 01:21:02;;;;;;;9.43;7.03;;;;;;;19.44;100.00;96012.88;5082768;28;20559;-40
2022/08/14 01:23:12;;;;;;;8.93;6.85;;;;;;;19.63;100.00;96004.00;5079631;28;20055;-48
2022/08/14 01:25:49;;;;;;;9.88;7.20;;;;;;;19.60;100.00;96001.69;5081359;28;20088;-43
2022/08/14 01:28:21;;;;;;;9.07;6.63;;;;;;;19.66;100.00;96000.88;5081783;28;20475;-44
2022/08/14 01:31:12;;;;;;;8.90;6.43;;;;;;;19.52;100.00;95993.94;5081933;28;20147;-46
2022/08/14 01:33:43;;;;;;;11.13;7.18;;;;;;;18.93;100.00;95994.94;5078916;28;20083;-41
2022/08/14 01:36:36;;;;;;;11.23;7.28;;;;;;;18.46;100.00;95994.09;5082176;28;20090;-50
2022/08/14 01:39:09;;;;;;;9.48;7.18;;;;;;;18.34;100.00;95991.25;5080056;28;20083;-40
2022/08/14 01:41:42;;;;;;;9.55;7.10;;;;;;;18.34;100.00;95980.56;5080787;28;20103;-40
2022/08/14 01:44:14;;;;;;;10.00;7.30;;;;;;;18.64;100.00;95980.94;5083660;28;20068;-40
2022/08/14 01:47:12;;;;;;;10.20;7.47;;;;;;;18.67;100.00;95982.38;5082401;28;20082;-46
2022/08/14 01:49:50;;;;;;;8.35;6.80;;;;;;;18.84;100.00;95982.81;5082029;28;20106;-49
2022/08/14 01:52:31;;;;;;;9.65;6.80;;;;;;;18.82;100.00;95976.84;5080138;28;20075;-39
2022/08/14 01:55:22;;;;;;;11.43;7.57;;;;;;;18.34;100.00;95967.22;5082930;28;20076;-48
2022/08/14 01:57:51;;;;;;;9.50;7.63;;;;;;;18.83;100.00;95965.16;5081878;28;20080;-47
2022/08/14 02:00:39;;;;;;;8.93;7.45;;;;;;;18.27;100.00;95961.88;5082659;28;20094;-40
2022/08/14 02:03:08;;;;;;;9.27;7.85;;;;;;;18.19;100.00;95966.56;5077559;28;20084;-44
2022/08/14 02:05:37;;;;;;;10.23;7.32;;;;;;;18.75;100.00;95952.81;5077824;28;20088;-44
2022/08/14 02:08:07;;;;;;;9.48;7.03;;;;;;;18.87;100.00;95945.00;5080792;28;20087;-42
2022/08/14 02:10:40;;;;;;;8.18;6.82;;;;;;;18.94;100.00;95940.44;5079663;28;20528;-40
2022/08/14 02:13:17;;;;;;;8.93;6.90;;;;;;;18.82;100.00;95939.44;5080988;28;20142;-39
2022/08/14 02:15:47;;;;;;;9.70;6.43;;;;;;;18.81;100.00;95943.97;5080225;28;20127;-47
2022/08/14 02:18:17;;;;;;;7.40;6.38;;;;;;;18.74;100.00;95940.50;5081675;28;20072;-44
2022/08/14 02:20:47;;;;;;;7.90;6.40;;;;;;;18.56;100.00;95937.63;5079300;28;20032;-42
2022/08/14 02:23:19;;;;;;;8.82;6.30;;;;;;;17.97;100.00;95932.09;5080301;28;20060;-41
2022/08/14 02:26:03;;;;;;;8.80;6.95;;;;;;;18.31;100.00;95929.44;5082490;28;20095;-40
2022/08/14 02:28:54;;;;;;;8.32;6.65;;;;;;;18.53;100.00;95920.16;5083288;28;20590;-40
2022/08/14 02:31:31;;;;;;;8.02;7.03;;;;;;;17.97;100.00;95925.94;5093770;28;20075;-41
2022/08/14 02:34:13;;;;;;;10.35;7.15;;;;;;;18.25;100.00;95920.41;5081915;28;20111;-40
2022/08/14 02:36:58;;;;;;;8.38;6.53;;;;;;;18.27;100.00;95921.00;5080679;28;20072;-43
2022/08/14 02:39:35;;;;;;;8.23;6.93;;;;;;;18.19;100.00;95911.34;5083081;28;20466;-44
2022/08/14 02:42:07;;;;;;;9.15;7.78;;;;;;;18.29;100.00;95910.13;5081651;28;20080;-41
2022/08/14 02:44:42;;;;;;;9.88;7.78;;;;;;;18.19;100.00;95910.53;5080748;28;20083;-44
2022/08/14 02:47:17;;;;;;;12.10;8.20;;;;;;;18.22;100.00;95915.47;5080024;28;20087;-45
2022/08/14 02:49:49;;;;;;;9.50;7.10;;;;;;;18.23;100.00;95909.09;5082298;28;20080;-41
2022/08/14 02:52:26;;;;;;;10.70;6.15;;;;;;;18.19;100.00;95903.34;5086102;28;20101;-40
2022/08/14 02:55:14;;;;;;;7.63;6.40;;;;;;;17.91;100.00;95906.22;5082312;28;20083;-41
2022/08/14 02:57:51;;;;;;;9.40;6.70;;;;;;;17.95;100.00;95894.09;5086606;28;20083;-42
2022/08/14 03:00:34;;;;;;;8.40;6.65;;;;;;;17.94;100.00;95895.13;5083548;28;20055;-41
2022/08/14 03:03:07;;;;;;;8.57;6.47;;;;;;;17.72;100.00;95894.47;5081568;28;20075;-39
2022/08/14 03:05:38;;;;;;;10.07;6.80;;;;;;;17.22;100.00;95903.78;5084498;28;20439;-40
2022/08/14 03:08:11;;;;;;;9.68;7.03;;;;;;;16.93;100.00;95912.88;5084940;28;20502;-39
2022/08/14 03:10:43;;;;;;;8.27;6.95;;;;;;;16.75;100.00;95911.53;5083015;28;20084;-39
2022/08/14 03:13:19;;;;;;;10.38;6.80;;;;;;;17.36;100.00;95909.97;5085328;28;20070;-47
2022/08/14 03:15:51;;;;;;;9.32;7.10;;;;;;;17.03;100.00;95908.00;5082068;28;20458;-41
2022/08/14 03:18:26;;;;;;;8.32;6.80;;;;;;;17.29;100.00;95904.63;5081038;28;20529;-43
2022/08/14 03:21:04;;;;;;;7.85;6.53;;;;;;;17.46;100.00;95899.75;5086027;28;20084;-40
2022/08/14 03:23:35;;;;;;;7.63;6.65;;;;;;;17.44;100.00;95902.59;5080106;28;20075;-46
2022/08/14 03:26:08;;;;;;;11.95;7.57;;;;;;;17.40;100.00;95892.56;5087383;28;20064;-41
2022/08/14 03:28:48;;;;;;;10.43;7.53;;;;;;;17.28;100.00;95895.81;5086498;28;20086;-45
2022/08/14 03:31:20;;;;;;;10.50;6.95;;;;;;;17.44;100.00;95902.59;5082168;28;20059;-40
2022/08/14 03:33:53;;;;;;;10.45;7.68;;;;;;;16.97;100.00;95898.97;5085943;28;20078;-45
2022/08/14 03:36:22;;;;;;;9.18;7.55;;;;;;;17.01;100.00;95892.22;5087851;28;20183;-45
2022/08/14 03:39:11;;;;;;;10.10;7.68;;;;;;;17.20;100.00;95895.97;5083659;28;20110;-40
2022/08/14 03:41:51;;;;;;;8.40;7.28;;;;;;;17.36;100.00;95896.66;5083814;28;20533;-44
2022/08/14 03:44:21;;;;;;;11.13;7.63;;;;;;;17.40;100.00;95889.88;5081846;28;20080;-44
2022/08/14 03:47:10;;;;;;;9.77;7.50;;;;;;;17.48;100.00;95892.34;5082704;28;20553;-40
2022/08/14 03:49:39;;;;;;;8.63;7.03;;;;;;;17.44;100.00;95883.94;5084602;28;20064;-40
2022/08/14 03:52:10;;;;;;;9.75;7.25;;;;;;;17.09;100.00;95883.22;5083810;28;20059;-40
2022/08/14 03:54:59;;;;;;;10.43;7.55;;;;;;;17.20;100.00;95881.81;5081232;28;20106;-42
2022/08/14 03:57:31;;;;;;;8.35;6.28;;;;;;;16.49;100.00;95884.75;5085821;28;20071;-40
2022/08/14 04:00:09;;;;;;;8.50;6.55;;;;;;;16.50;100.00;95887.22;5083261;28;20079;-42
2022/08/14 04:02:58;;;;;;;8.18;6.88;;;;;;;16.94;100.00;95882.56;5080011;28;20083;-44
2022/08/14 04:05:26;;;;;;;8.25;6.80;;;;;;;16.57;100.00;95877.44;5082166;28;20085;-45
2022/08/14 04:07:55;;;;;;;9.13;7.60;;;;;;;16.51;100.00;95874.72;5084478;28;20083;-43
2022/08/14 04:10:45;;;;;;;8.45;7.50;;;;;;;16.58;100.00;95871.06;5082815;28;20084;-42
2022/08/14 04:13:17;;;;;;;8.85;7.03;;;;;;;17.41;100.00;95854.22;5081700;28;20069;-41
2022/08/14 04:15:47;;;;;;;11.38;6.97;;;;;;;17.61;100.00;95846.25;5081084;28;20084;-46
2022/08/14 04:18:31;;;;;;;10.02;6.80;;;;;;;17.72;100.00;95849.16;5084311;28;20110;-42
2022/08/14 04:21:01;;;;;;;9.82;7.15;;;;;;;17.60;100.00;95845.44;5083322;28;20710;-47
2022/08/14 04:23:32;;;;;;;8.05;6.65;;;;;;;17.71;100.00;95844.81;5085093;28;20092;-44
2022/08/14 04:26:02;;;;;;;8.20;6.22;;;;;;;17.88;100.00;95849.78;5081333;28;20079;-42
2022/08/14 04:28:33;;;;;;;8.45;6.60;;;;;;;17.72;100.00;95850.97;5083186;28;20083;-41
2022/08/14 04:31:23;;;;;;;;;;;;;;;17.91;100.00;95844.03;5083819;28;20083;-43
2022/08/14 04:34:11;;;;;;;7.50;5.63;;;;;;;17.76;100.00;95846.91;5082059;28;19978;-41
2022/08/14 04:45:20;;;;;;;6.70;5.53;;;;;;;17.32;100.00;95837.59;5079243;28;20079;-40
2022/08/14 04:50:38;;;;;;;10.23;5.97;;;;;;;18.01;100.00;95837.25;5078712;28;20072;-41
2022/08/14 04:53:14;;;;;;;11.02;6.13;;;;;;;18.34;100.00;95835.56;5080079;28;20513;-36
2022/08/14 04:55:47;;;;;;;8.48;6.47;;;;;;;18.34;100.00;95831.06;5083216;28;20080;-43
2022/08/14 04:58:20;;;;;;;8.25;7.45;;;;;;;19.67;100.00;95827.81;5084126;28;20075;-41
2022/08/14 05:01:02;;;;;;;7.75;7.05;;;;;;;20.34;100.00;95830.78;5084295;28;20071;-42
2022/08/14 05:03:34;;;;;;;7.40;6.70;;;;;;;20.96;100.00;95828.88;5080990;28;20135;-41
2022/08/14 05:06:06;;;;;;;7.95;6.47;;;;;;;21.40;100.00;95816.13;5078213;28;20522;-41
2022/08/14 05:08:54;;;;;;;7.82;7.05;;;;;;;21.97;100.00;95821.03;5081369;28;20071;-43
2022/08/14 05:11:32;;;;;;;7.30;6.47;;;;;;;20.92;100.00;95826.84;5083626;28;21065;-42
2022/08/14 05:14:04;;;;;;;7.32;6.63;;;;;;;21.85;100.00;95818.34;5077241;28;21497;-47
2022/08/14 05:16:52;;;;;;;6.95;6.35;;;;;;;21.66;100.00;95819.47;5084311;28;20079;-44
2022/08/14 05:19:26;;;;;;;8.23;6.45;;;;;;;23.09;100.00;95810.13;5079496;28;20604;-43
2022/08/14 05:21:58;;;;;;;6.88;6.20;;;;;;;23.57;97.49;95810.72;5080061;28;20534;-42
2022/08/14 05:24:48;;;;;;;6.72;5.85;;;;;;;24.12;89.11;95815.41;5083126;28;20071;-41
2022/08/14 05:27:18;;;;;;;7.18;6.25;;;;;;;23.04;100.00;95810.00;5081469;28;20075;-48
2022/08/14 05:29:51;;;;;;;8.68;6.30;;;;;;;22.95;100.00;95809.59;5085162;28;20063;-42
2022/08/14 05:32:20;;;;;;;;;;;;;;;24.03;97.06;95811.53;5082038;28;20518;-41
2022/08/14 05:34:51;;;;;;;7.35;6.07;;;;;;;24.33;92.65;95808.47;5077737;28;19970;-45
2022/08/14 05:37:19;;;;;;;6.75;5.43;;;;;;;24.68;87.30;95810.06;5075781;28;20083;-41
2022/08/14 05:39:48;;;;;;;7.00;5.35;;;;;;;24.20;91.25;95812.31;5083228;28;20096;-47
2022/08/14 05:42:17;;;;;;;7.95;5.85;;;;;;;24.11;93.81;95808.41;5081011;28;20040;-42
2022/08/14 05:44:54;;;;;;;6.05;5.50;;;;;;;23.88;96.82;95812.91;5079851;28;20511;-41
2022/08/14 05:47:23;;;;;;;7.90;5.85;;;;;;;23.89;100.00;95816.41;5080403;28;20106;-41
2022/08/14 05:50:02;;;;;;;7.28;6.15;;;;;;;23.09;100.00;95817.34;5081460;28;20075;-45
2022/08/14 05:52:31;;;;;;;6.78;5.75;;;;;;;23.22;100.00;95817.06;5080314;28;20079;-46
2022/08/14 05:55:16;;;;;;;6.97;6.03;;;;;;;23.39;100.00;95823.31;5080435;28;20554;-47
2022/08/14 05:57:52;;;;;;;7.63;6.53;;;;;;;23.09;100.00;95833.47;5077319;28;20206;-44
2022/08/14 06:00:23;;;;;;;6.38;5.78;;;;;;;22.92;100.00;95836.94;5080920;28;20064;-44
2022/08/14 06:03:00;;;;;;;8.35;5.85;;;;;;;22.74;100.00;95839.72;5078885;28;20092;-43
2022/08/14 06:05:35;;;;;;;6.70;6.10;;;;;;;23.00;100.00;95838.44;5080811;28;20475;-41
2022/08/14 06:08:06;;;;;;;7.68;6.38;;;;;;;22.97;100.00;95842.41;5077480;28;20064;-51
2022/08/14 06:10:36;;;;;;;7.38;6.20;;;;;;;23.11;100.00;95842.16;5081388;28;20084;-41
2022/08/14 06:13:05;;;;;;;6.72;6.03;;;;;;;23.22;100.00;95836.72;5079206;28;20087;-44
2022/08/14 06:15:36;;;;;;;7.47;6.18;;;;;;;23.08;100.00;95835.34;5081427;28;20072;-41
2022/08/14 06:18:07;;;;;;;6.72;5.93;;;;;;;22.52;100.00;95837.66;5081007;28;20091;-42
2022/08/14 06:20:38;;;;;;;6.05;5.45;;;;;;;23.00;100.00;95843.00;5080090;28;20079;-41
2022/08/14 06:23:07;;;;;;;6.03;5.43;;;;;;;22.67;100.00;95845.22;5078983;28;20082;-48
2022/08/14 06:25:35;;;;;;;5.93;5.10;;;;;;;23.44;100.00;95844.13;5077186;28;20506;-43
2022/08/14 06:28:04;;;;;;;7.78;5.45;;;;;;;23.63;100.00;95836.66;5075889;28;20072;-46
2022/08/14 06:30:53;;;;;;;6.32;5.28;;;;;;;23.95;100.00;95837.00;5076588;28;20087;-47
2022/08/14 06:33:22;;;;;;;6.18;4.97;;;;;;;23.86;100.00;95836.56;5077566;28;20083;-44
2022/08/14 06:36:11;;;;;;;7.18;5.20;;;;;;;23.51;100.00;95835.91;5076579;28;20084;-40
2022/08/14 06:38:45;;;;;;;6.07;5.05;;;;;;;24.15;100.00;95825.69;5077686;28;20090;-40
2022/08/14 06:41:17;;;;;;;7.00;4.85;;;;;;;24.48;100.00;95826.78;5077104;28;20114;-42
2022/08/14 06:44:06;;;;;;;6.32;4.90;;;;;;;23.87;100.00;95827.41;5080552;28;20644;-41
2022/08/14 06:46:37;;;;;;;7.28;5.00;;;;;;;24.71;100.00;95831.97;5078435;28;20063;-44
2022/08/14 06:49:05;;;;;;;5.95;5.20;;;;;;;24.42;100.00;95833.97;5074679;28;20072;-43
2022/08/14 06:51:35;;;;;;;8.23;4.75;;;;;;;25.02;98.96;95835.88;5074354;28;20080;-40
2022/08/14 06:54:12;;;;;;;4.72;4.32;;;;;;;25.27;96.74;95840.75;5075012;28;20491;-41
2022/08/14 06:56:40;;;;;;;5.13;4.60;;;;;;;25.67;95.26;95839.56;5078490;28;20083;-44
2022/08/14 06:59:14;;;;;;;4.93;4.25;;;;;;;25.62;90.88;95839.50;5078129;28;20526;-47
2022/08/14 07:07:35;;;;;;;5.55;4.30;;;;;;;25.40;85.24;95833.34;5078970;28;20076;-39
2022/08/14 07:10:07;;;;;;;6.70;4.40;;;;;;;25.72;82.92;95839.63;5075017;28;20550;-42
2022/08/14 07:12:44;;;;;;;5.38;4.63;;;;;;;26.15;80.67;95840.56;5072031;28;20710;-42
2022/08/14 07:15:29;;;;;;;4.82;4.32;;;;;;;25.94;80.07;95841.44;5077263;28;20076;-42
2022/08/14 07:18:02;;;;;;;4.45;4.05;;;;;;;26.48;75.34;95834.06;5078440;28;20074;-40
2022/08/14 07:20:32;;;;;;;5.38;4.80;;;;;;;25.99;76.86;95828.00;5077294;28;20953;-41
2022/08/14 07:23:05;;;;;;;5.03;4.50;;;;;;;26.66;72.96;95826.59;5075566;28;20079;-42
2022/08/14 07:25:39;;;;;;;4.53;4.13;;;;;;;26.44;71.13;95822.13;5077484;28;20071;-45
2022/08/14 07:28:10;;;;;;;4.70;4.18;;;;;;;26.49;70.99;95822.16;5076278;28;20090;-42
2022/08/14 07:30:40;;;;;;;7.07;4.22;;;;;;;26.96;68.39;95821.34;5077075;28;20076;-42
2022/08/14 07:33:20;;;;;;;7.72;4.20;;;;;;;27.07;64.94;95815.97;5074620;28;20088;-41
2022/08/14 07:35:58;;;;;;;5.05;4.43;;;;;;;26.99;64.91;95806.47;5083404;28;20086;-41
2022/08/14 07:38:28;;;;;;;12.65;4.80;;;;;;;26.70;67.73;95804.19;5086662;28;20082;-41
2022/08/14 07:41:04;;;;;;;4.53;4.13;;;;;;;27.24;66.72;95794.94;5087907;28;20091;-46
2022/08/14 07:43:42;;;;;;;6.20;4.20;;;;;;;27.54;65.37;95786.09;5081192;28;20090;-41
2022/08/14 07:46:15;;;;;;;8.65;4.10;;;;;;;27.78;67.26;95782.88;5083422;28;20079;-44
2022/08/14 07:48:55;;;;;;;7.28;4.63;;;;;;;27.58;64.77;95776.34;5078039;28;20077;-43
2022/08/14 07:51:24;;;;;;;5.97;4.50;;;;;;;27.74;63.94;95777.16;5084122;28;20075;-47
2022/08/14 07:54:03;;;;;;;9.05;4.45;;;;;;;27.23;65.54;95766.25;5083948;28;20078;-47
2022/08/14 07:56:36;;;;;;;6.47;4.55;;;;;;;27.59;65.39;95758.19;5082778;28;20074;-42
2022/08/14 07:59:16;;;;;;;6.15;4.10;;;;;;;27.53;60.85;95768.22;5084499;28;20552;-47
2022/08/14 08:01:46;;;;;;;4.80;4.13;;;;;;;27.88;62.30;95772.06;5087163;28;20076;-42
2022/08/14 08:04:22;;;;;;;4.57;4.18;;;;;;;27.78;61.64;95767.44;5087341;28;20485;-42
2022/08/14 08:06:52;;;;;;;4.25;3.85;;;;;;;27.85;62.00;95762.56;5082772;28;20084;-41
2022/08/14 08:09:25;;;;;;;6.32;4.30;;;;;;;27.83;67.29;95764.72;5084265;28;20072;-46
2022/08/14 08:12:02;;;;;;;5.05;4.55;;;;;;;27.84;65.97;95757.41;5083137;28;20086;-43
2022/08/14 08:14:33;;;;;;;13.23;4.72;;;;;;;27.44;63.19;95756.28;5085932;28;20064;-43
2022/08/14 08:17:23;;;;;;;4.63;3.75;;;;;;;28.41;58.42;95763.63;5085982;28;22047;-47
2022/08/14 08:19:51;;;;;;;4.50;4.10;;;;;;;28.15;57.79;95769.06;5078880;28;20473;-45
2022/08/14 08:22:20;;;;;;;6.55;4.32;;;;;;;27.99;58.49;95767.44;5087168;28;20068;-46
2022/08/14 08:24:50;;;;;;;5.03;4.47;;;;;;;28.27;61.54;95771.47;5086841;28;20059;-41
2022/08/14 08:27:19;;;;;;;4.82;4.43;;;;;;;28.44;57.02;95768.50;5085456;28;20628;-40
2022/08/14 08:29:48;;;;;;;6.32;3.78;;;;;;;28.39;56.55;95770.13;5085725;28;20091;-43
2022/08/14 08:32:18;;;;;;;6.10;4.68;;;;;;;28.30;57.88;95763.59;5084058;28;20083;-44
2022/08/14 08:34:48;;;;;;;4.38;3.95;;;;;;;28.69;58.17;95771.13;5087841;28;20071;-40
2022/08/14 08:37:16;;;;;;;4.82;4.15;;;;;;;28.44;53.73;95763.88;5084966;28;20110;-43
2022/08/14 08:39:46;;;;;;;5.75;4.18;;;;;;;29.07;52.27;95763.41;5087553;28;20518;-42
2022/08/14 08:42:32;;;;;;;5.40;4.15;;;;;;;29.09;53.05;95756.59;5082637;28;20511;-44
2022/08/14 08:45:07;;;;;;;6.32;4.70;;;;;;;29.28;53.27;95754.03;5087363;28;20076;-45
2022/08/14 08:47:40;;;;;;;4.80;3.85;;;;;;;29.18;47.80;95759.56;5085746;28;20083;-46
2022/08/14 08:50:20;;;;;;;3.90;3.55;;;;;;;29.09;47.38;95764.75;5083260;28;20090;-43
2022/08/14 08:52:59;;;;;;;5.97;4.00;;;;;;;29.62;46.88;95752.50;5083002;28;20074;-46
2022/08/14 08:55:32;;;;;;;4.50;4.10;;;;;;;29.43;48.24;95758.59;5086050;28;20091;-48
2022/08/14 08:58:04;;;;;;;5.85;3.70;;;;;;;29.53;46.04;95753.09;5080379;28;20075;-41
2022/08/14 09:00:47;;;;;;;4.10;3.70;;;;;;;29.16;45.03;95744.63;5080097;28;20087;-43
2022/08/14 09:03:19;;;;;;;4.57;4.03;;;;;;;29.76;43.36;95742.59;5081144;28;20080;-47
2022/08/14 09:05:52;;;;;;;4.00;3.40;;;;;;;30.26;42.73;95740.56;5082905;28;20086;-43
2022/08/14 09:08:24;;;;;;;4.80;2.97;;;;;;;29.58;39.26;95734.00;5073528;28;20080;-42
2022/08/14 09:11:02;;;;;;;4.63;3.30;;;;;;;30.32;39.71;95730.44;5076717;28;20083;-48
2022/08/14 09:13:52;;;;;;;4.97;3.30;;;;;;;29.60;42.04;95744.66;5079369;28;20088;-44
2022/08/14 09:16:22;;;;;;;4.38;3.30;;;;;;;30.32;41.57;95738.59;5080000;28;20087;-46
2022/08/14 09:18:52;;;;;;;3.95;3.50;;;;;;;29.85;42.51;95740.91;5076593;28;20091;-43
2022/08/14 09:21:22;;;;;;;4.55;3.42;;;;;;;30.37;40.60;95733.91;5080393;28;20102;-44
2022/08/14 09:23:58;;;;;;;4.78;3.33;;;;;;;30.18;39.79;95739.28;5080666;28;20083;-41
2022/08/14 09:26:47;;;;;;;6.20;3.50;;;;;;;30.82;39.45;95725.53;5078803;28;20090;-40
2022/08/14 09:29:18;;;;;;;4.43;3.45;;;;;;;30.43;39.12;95713.72;5078577;28;20075;-38
2022/08/14 09:31:53;;;;;;;3.97;3.25;;;;;;;30.60;39.66;95712.47;5083146;28;20075;-42
2022/08/14 09:34:42;;;;;;;3.75;3.35;;;;;;;31.21;39.19;95711.66;5077943;28;20080;-50
2022/08/14 09:37:33;;;;;;;3.85;3.45;;;;;;;31.42;38.29;95717.69;5080453;28;20171;-44
2022/08/14 09:40:07;;;;;;;4.20;3.45;;;;;;;30.89;39.28;95712.38;5078482;28;20084;-45
2022/08/14 09:42:50;;;;;;;4.25;3.85;;;;;;;31.03;38.30;95713.28;5079713;28;20071;-45
2022/08/14 09:45:31;;;;;;;4.53;3.53;;;;;;;31.20;37.82;95721.75;5075500;28;20079;-44
2022/08/14 09:48:14;;;;;;;4.00;3.60;;;;;;;30.44;38.43;95712.63;5078375;28;20141;-43
2022/08/14 09:50:48;;;;;;;3.45;3.10;;;;;;;30.58;37.94;95692.88;5080075;28;20102;-39
2022/08/14 09:53:19;;;;;;;4.07;3.60;;;;;;;30.76;37.32;95700.28;5081962;28;20080;-44
2022/08/14 09:55:58;;;;;;;4.32;3.28;;;;;;;31.02;37.20;95708.94;5080300;28;20080;-44
2022/08/14 09:58:36;;;;;;;3.20;2.90;;;;;;;30.94;37.46;95706.88;5081595;28;20080;-41
2022/08/14 10:01:12;;;;;;;4.90;3.30;;;;;;;31.46;36.28;95707.78;5079834;28;20079;-45
2022/08/14 10:03:48;;;;;;;5.55;3.40;;;;;;;31.21;36.41;95711.66;5080193;28;20083;-43
2022/08/14 10:06:24;;;;;;;4.60;3.20;;;;;;;31.98;35.55;95700.44;5083843;28;20080;-42
2022/08/14 10:09:00;;;;;;;6.18;3.45;;;;;;;31.49;35.38;95703.66;5084089;28;20079;-45
2022/08/14 10:11:35;;;;;;;3.95;3.50;;;;;;;31.64;36.16;95704.22;5083349;28;20830;-42
2022/08/14 10:14:15;;;;;;;3.58;3.08;;;;;;;32.00;35.17;95700.13;5082537;28;20094;-47
2022/08/14 10:17:06;;;;;;;3.40;3.10;;;;;;;32.35;34.12;95696.75;5082666;28;20083;-43
2022/08/14 10:19:36;;;;;;;4.57;3.55;;;;;;;31.86;35.14;95692.66;5081364;28;20087;-45
2022/08/14 10:22:07;;;;;;;4.03;3.35;;;;;;;31.40;35.76;95684.44;5080126;28;20105;-43
2022/08/14 10:24:55;;;;;;;3.78;3.38;;;;;;;31.96;36.28;95685.47;5079367;28;20072;-44
2022/08/14 10:27:25;;;;;;;4.85;3.80;;;;;;;31.65;35.70;95678.56;5084057;28;20103;-47
2022/08/14 10:29:59;;;;;;;4.57;3.65;;;;;;;31.54;35.63;95685.31;5079737;28;20079;-45
2022/08/14 10:32:29;;;;;;;3.83;3.53;;;;;;;31.70;36.08;95685.06;5079916;28;20083;-44
2022/08/14 10:35:17;;;;;;;5.28;3.80;;;;;;;31.43;36.00;95678.41;5084603;28;20075;-45
2022/08/14 10:37:52;;;;;;;4.43;3.28;;;;;;;32.88;34.91;95672.78;5079779;28;20084;-47
2022/08/14 10:40:26;;;;;;;4.25;3.55;;;;;;;32.30;35.20;95666.81;5080678;28;20788;-43
2022/08/14 10:43:19;;;;;;;5.18;3.85;;;;;;;32.36;35.42;95673.78;5075270;28;20072;-45
2022/08/14 10:45:56;;;;;;;3.50;3.20;;;;;;;32.77;34.72;95659.34;5085295;28;20083;-43
2022/08/14 10:48:57;;;;;;;6.20;3.70;;;;;;;32.00;35.60;95657.28;5086684;28;20082;-41
2022/08/14 10:51:26;;;;;;;4.80;3.97;;;;;;;32.02;35.76;95659.72;5084564;28;20520;-47
2022/08/14 10:54:00;;;;;;;3.92;3.53;;;;;;;32.05;35.38;95665.38;5075953;28;20080;-49
2022/08/14 10:56:44;;;;;;;4.95;3.60;;;;;;;32.37;34.53;95659.03;5081886;28;20087;-42
2022/08/14 10:59:13;;;;;;;4.20;3.58;;;;;;;32.70;33.98;95658.94;5077994;28;20080;-42
2022/08/14 11:01:42;;;;;;;4.90;3.53;;;;;;;32.67;34.46;95650.56;5084260;28;20098;-49
2022/08/14 11:04:23;;;;;;;3.85;3.50;;;;;;;32.72;34.62;95651.25;5083356;28;20091;-44
2022/08/14 11:06:55;;;;;;;4.40;3.78;;;;;;;32.89;34.54;95642.41;5082535;28;20090;-45
2022/08/14 11:09:24;;;;;;;5.07;3.87;;;;;;;32.94;34.08;95646.97;5074383;28;20611;-41
2022/08/14 11:11:56;;;;;;;3.92;3.50;;;;;;;32.80;34.22;95639.63;5079943;28;20551;-42
2022/08/14 11:14:51;;;;;;;5.03;3.28;;;;;;;32.90;34.31;95632.28;5087153;28;20148;-39
2022/08/14 11:17:30;;;;;;;4.90;3.60;;;;;;;32.58;34.99;95632.16;5081316;28;20075;-40
2022/08/14 11:20:03;;;;;;;5.15;3.55;;;;;;;32.35;34.78;95631.25;5080193;28;20083;-39
2022/08/14 11:22:32;;;;;;;4.80;3.70;;;;;;;32.47;34.95;95628.03;5082163;28;20937;-43
2022/08/14 11:25:22;;;;;;;4.88;3.78;;;;;;;32.27;35.04;95615.56;5085886;28;20080;-43
2022/08/14 11:27:52;;;;;;;3.80;3.35;;;;;;;32.31;34.87;95616.59;5086672;28;20079;-41
2022/08/14 11:30:23;;;;;;;4.22;3.67;;;;;;;32.53;34.88;95618.63;5085541;28;20079;-47
2022/08/14 11:33:12;;;;;;;4.20;3.80;;;;;;;32.66;34.53;95618.91;5087475;28;20098;-47
2022/08/14 11:35:48;;;;;;;4.65;3.92;;;;;;;32.51;34.66;95611.84;5082516;28;20153;-45
2022/08/14 11:38:20;;;;;;;4.30;3.67;;;;;;;32.54;34.85;95617.50;5086587;28;20083;-44
2022/08/14 11:40:48;;;;;;;5.13;3.95;;;;;;;32.79;34.28;95610.66;5079328;28;20068;-42
2022/08/14 11:43:20;;;;;;;4.57;4.05;;;;;;;32.49;34.46;95608.63;5082553;28;20083;-36
2022/08/14 11:45:56;;;;;;;4.75;3.80;;;;;;;32.56;34.62;95612.56;5081531;28;20076;-45
2022/08/14 11:48:27;;;;;;;6.05;3.95;;;;;;;33.35;34.31;95583.22;5082418;28;20091;-40
2022/08/14 11:51:19;;;;;;;4.50;4.10;;;;;;;32.19;34.62;95591.75;5085076;28;20087;-41
2022/08/14 11:53:53;;;;;;;4.50;4.10;;;;;;;32.76;34.60;95578.53;5084155;28;20526;-43
2022/08/14 11:56:22;;;;;;;5.85;4.07;;;;;;;32.53;34.71;95568.69;5085333;28;20083;-42
2022/08/14 11:58:57;;;;;;;4.00;3.60;;;;;;;32.91;33.33;95568.38;5079660;28;20151;-41
2022/08/14 12:01:27;;;;;;;4.70;4.20;;;;;;;32.81;34.11;95567.50;5077999;28;20083;-42
2022/08/14 12:03:57;;;;;;;4.13;3.72;;;;;;;33.28;33.43;95567.25;5081769;28;20473;-42
2022/08/14 12:06:31;;;;;;;4.07;3.38;;;;;;;33.47;33.86;95567.81;5086630;28;20086;-41
2022/08/14 12:09:06;;;;;;;5.30;3.90;;;;;;;33.16;33.36;95565.06;5081733;28;20072;-46
2022/08/14 12:11:43;;;;;;;4.60;3.85;;;;;;;33.66;33.59;95558.66;5085338;28;20079;-46
2022/08/14 12:14:21;;;;;;;7.88;3.60;;;;;;;32.80;34.30;95559.63;5084734;28;20064;-41
2022/08/14 12:17:06;;;;;;;4.50;3.90;;;;;;;33.18;34.16;95540.97;5082356;28;20063;-38
2022/08/14 12:19:48;;;;;;;4.00;3.60;;;;;;;33.08;33.38;95547.50;5078859;28;20079;-43
2022/08/14 12:22:32;;;;;;;4.10;3.70;;;;;;;33.26;32.83;95540.22;5083180;28;20079;-45
2022/08/14 12:25:01;;;;;;;4.00;3.63;;;;;;;33.44;32.60;95543.03;5077819;28;20084;-43
2022/08/14 12:27:38;;;;;;;5.03;3.78;;;;;;;33.71;33.05;95542.91;5086956;28;20115;-41
2022/08/14 12:30:30;;;;;;;4.20;3.80;;;;;;;33.12;33.22;95544.13;5083430;28;20080;-47